Time;durP1;ratioP1;P1;durP2;ratioP2;P2;SDS_P1;SDS_P2;PMS_P1;PMS_P2;Temp;Humidity;BMP_temperature;BMP_pressure;BME280_temperature;BME280_humidity;BME280_pressure;Samples;Min_cycle;Max_cycle;Signal;HPM_P1;HPM_P2
2023/09/10 00:00:50;;;;;;;25.83;23.33;;;22.00;25.20;;;;;;5029286;28;20498;-67
2023/09/10 00:03:17;;;;;;;25.30;22.90;;;22.00;25.30;;;;;;5030591;28;20485;-67
2023/09/10 00:05:45;;;;;;;27.03;24.43;;;22.00;25.10;;;;;;5026306;28;20459;-67
2023/09/10 00:08:12;;;;;;;25.83;23.13;;;22.00;25.00;;;;;;5031430;28;20468;-67
2023/09/10 00:10:41;;;;;;;25.10;22.60;;;22.00;25.20;;;;;;5026300;28;20476;-67
2023/09/10 00:13:09;;;;;;;24.83;22.40;;;22.00;24.80;;;;;;5028791;28;20544;-67
2023/09/10 00:15:36;;;;;;;25.20;22.70;;;22.00;25.00;;;;;;5029528;28;20492;-67
2023/09/10 00:18:02;;;;;;;25.50;23.00;;;21.90;25.00;;;;;;5035267;28;20464;-67
2023/09/10 00:20:29;;;;;;;26.10;23.60;;;21.90;25.00;;;;;;5031270;28;21060;-68
2023/09/10 00:22:57;;;;;;;25.17;22.77;;;21.90;25.30;;;;;;5026296;28;20478;-66
2023/09/10 00:25:24;;;;;;;26.03;23.20;;;21.80;25.40;;;;;;5029875;28;20489;-66
2023/09/10 00:27:51;;;;;;;24.93;22.40;;;21.80;25.50;;;;;;5032943;28;20472;-67
2023/09/10 00:30:18;;;;;;;25.07;22.37;;;21.80;25.70;;;;;;5032333;28;20469;-67
2023/09/10 00:32:44;;;;;;;26.30;23.50;;;21.70;25.80;;;;;;5029666;28;20463;-67
2023/09/10 00:35:11;;;;;;;27.87;25.03;;;21.70;25.80;;;;;;5030437;28;20470;-67
2023/09/10 00:37:38;;;;;;;25.70;23.20;;;21.70;26.20;;;;;;5026479;28;20465;-68
2023/09/10 00:40:08;;;;;;;29.57;25.30;;;21.60;26.00;;;;;;5030101;28;20989;-67
2023/09/10 00:42:35;;;;;;;26.23;23.67;;;21.60;26.10;;;;;;5029013;28;20517;-67
2023/09/10 00:45:03;;;;;;;25.50;22.97;;;21.60;25.90;;;;;;5032682;28;20482;-68
2023/09/10 00:47:30;;;;;;;27.90;25.17;;;21.60;26.10;;;;;;5037029;28;20473;-67
2023/09/10 00:49:57;;;;;;;30.83;27.83;;;21.50;26.60;;;;;;5027487;28;20466;-67
2023/09/10 00:52:25;;;;;;;33.03;29.73;;;21.50;26.60;;;;;;5027543;28;20467;-67
2023/09/10 00:54:52;;;;;;;32.43;29.17;;;21.50;27.00;;;;;;5028206;28;20528;-67
2023/09/10 00:57:20;;;;;;;31.37;28.37;;;21.50;27.10;;;;;;5035553;28;20458;-66
2023/09/10 00:59:47;;;;;;;32.57;29.27;;;21.50;27.10;;;;;;5032038;28;20474;-68
2023/09/10 01:02:15;;;;;;;30.07;27.17;;;21.50;27.00;;;;;;5026799;28;20479;-66
2023/09/10 01:04:42;;;;;;;30.60;27.40;;;21.40;27.20;;;;;;5026522;28;20482;-68
2023/09/10 01:07:09;;;;;;;27.43;24.73;;;21.40;27.20;;;;;;5028501;28;20473;-67
2023/09/10 01:09:36;;;;;;;28.57;25.67;;;21.40;27.00;;;;;;5030113;28;20470;-65
2023/09/10 01:12:10;;;;;;;27.47;24.70;;;21.40;27.10;;;;;;5031637;28;20457;-67
2023/09/10 01:14:45;;;;;;;27.23;24.53;;;21.40;27.10;;;;;;5035464;28;20486;-66
2023/09/10 01:17:17;;;;;;;27.27;24.33;;;21.40;27.20;;;;;;5029770;28;20465;-67
2023/09/10 01:20:09;;;;;;;28.53;24.33;;;21.40;27.20;;;;;;5030374;28;20475;-68
2023/09/10 01:22:45;;;;;;;26.63;24.00;;;21.40;27.40;;;;;;5033818;28;20473;-67
2023/09/10 01:25:14;;;;;;;26.33;23.73;;;21.40;27.00;;;;;;5035075;28;21508;-66
2023/09/10 01:27:43;;;;;;;27.40;24.30;;;21.40;27.70;;;;;;5032116;28;20459;-66
2023/09/10 01:30:10;;;;;;;23.93;21.60;;;21.40;27.00;;;;;;5034650;28;20544;-66
2023/09/10 01:32:41;;;;;;;25.47;22.97;;;21.40;26.90;;;;;;5029880;28;20474;-66
2023/09/10 01:35:15;;;;;;;24.30;21.90;;;21.30;26.80;;;;;;5037068;28;20999;-66
2023/09/10 01:37:46;;;;;;;25.67;22.97;;;21.30;26.80;;;;;;5024798;28;20786;-66
2023/09/10 01:40:20;;;;;;;26.80;24.10;;;21.30;26.70;;;;;;5026967;28;20458;-66
2023/09/10 01:42:48;;;;;;;30.30;27.20;;;21.30;26.60;;;;;;5033223;28;20459;-67
2023/09/10 01:45:15;;;;;;;30.10;27.10;;;21.30;26.80;;;;;;5027659;28;20979;-66
2023/09/10 01:47:42;;;;;;;33.10;28.37;;;21.30;27.10;;;;;;5029616;28;20455;-66
2023/09/10 01:50:10;;;;;;;33.30;29.80;;;21.30;27.20;;;;;;5024599;28;20828;-66
2023/09/10 01:52:37;;;;;;;29.50;25.80;;;21.30;27.20;;;;;;5025957;28;20482;-66
2023/09/10 01:55:05;;;;;;;27.90;24.27;;;21.30;27.00;;;;;;5021323;28;20495;-66
2023/09/10 01:57:33;;;;;;;28.53;25.47;;;21.20;27.10;;;;;;5028564;28;20462;-66
2023/09/10 02:00:00;;;;;;;29.30;26.27;;;21.10;27.20;;;;;;5024294;28;20497;-66
2023/09/10 02:02:26;;;;;;;30.37;27.40;;;21.10;27.30;;;;;;5025441;28;20493;-66
2023/09/10 02:04:53;;;;;;;29.27;26.37;;;21.10;27.20;;;;;;5025569;28;20838;-66
2023/09/10 02:07:20;;;;;;;31.17;27.97;;;21.10;27.10;;;;;;5028759;28;20468;-66
2023/09/10 02:09:46;;;;;;;29.73;26.60;;;21.10;27.20;;;;;;5025023;28;20458;-66
2023/09/10 02:12:13;;;;;;;29.43;26.63;;;21.00;27.30;;;;;;5027275;28;20467;-66
2023/09/10 02:14:42;;;;;;;28.63;25.63;;;21.00;27.30;;;;;;5027166;28;20490;-66
2023/09/10 02:17:09;;;;;;;34.60;27.40;;;21.00;27.20;;;;;;5026537;28;20458;-66
2023/09/10 02:19:35;;;;;;;28.67;25.67;;;21.00;27.20;;;;;;5027668;28;20466;-66
2023/09/10 02:22:03;;;;;;;27.77;25.13;;;21.00;27.40;;;;;;5030293;28;20465;-66
2023/09/10 02:24:30;;;;;;;27.73;24.83;;;20.90;27.30;;;;;;5026167;28;21355;-66
2023/09/10 02:26:56;;;;;;;29.43;26.73;;;20.90;27.20;;;;;;5030813;28;20467;-66
2023/09/10 02:29:23;;;;;;;30.20;26.90;;;20.90;27.10;;;;;;5029059;28;20463;-66
2023/09/10 02:31:51;;;;;;;31.30;28.00;;;20.90;27.00;;;;;;5073428;23;20466;-69
2023/09/10 02:34:18;;;;;;;29.43;26.60;;;20.90;26.90;;;;;;4983190;28;20491;-69
2023/09/10 02:36:45;;;;;;;29.03;26.00;;;21.00;26.90;;;;;;4991059;28;20468;-69
2023/09/10 02:39:11;;;;;;;30.80;27.67;;;21.00;26.80;;;;;;4989855;28;21124;-69
2023/09/10 02:41:38;;;;;;;31.33;28.43;;;21.00;26.60;;;;;;4983797;28;20456;-66
2023/09/10 02:44:05;;;;;;;32.20;29.10;;;20.90;27.00;;;;;;4989052;28;20484;-67
2023/09/10 02:46:32;;;;;;;32.47;29.07;;;20.90;27.20;;;;;;4990412;28;20487;-67
2023/09/10 02:49:00;;;;;;;31.63;28.40;;;20.90;27.20;;;;;;4992840;28;20467;-67
2023/09/10 02:51:27;;;;;;;30.83;27.70;;;20.80;27.40;;;;;;4987989;28;20954;-67
2023/09/10 02:53:54;;;;;;;29.70;26.70;;;20.80;27.40;;;;;;4984763;28;20567;-66
2023/09/10 02:56:21;;;;;;;31.27;27.70;;;20.80;27.40;;;;;;4992883;28;20684;-66
2023/09/10 02:58:47;;;;;;;31.10;28.00;;;20.80;27.30;;;;;;4988043;28;20476;-66
2023/09/10 03:01:14;;;;;;;32.63;29.30;;;20.70;27.60;;;;;;4988267;28;20567;-67
2023/09/10 03:03:41;;;;;;;30.43;27.50;;;20.70;27.80;;;;;;4985604;28;20992;-66
2023/09/10 03:06:13;;;;;;;31.43;28.43;;;20.70;27.70;;;;;;4989804;28;20479;-67
2023/09/10 03:08:41;;;;;;;32.60;29.43;;;20.70;27.60;;;;;;4990798;28;20527;-66
2023/09/10 03:11:08;;;;;;;33.80;30.50;;;20.70;27.40;;;;;;4990979;28;20470;-66
2023/09/10 03:13:34;;;;;;;33.67;30.30;;;20.60;27.50;;;;;;4990434;28;20507;-66
2023/09/10 03:16:01;;;;;;;31.53;28.43;;;20.50;28.00;;;;;;4988564;28;20480;-66
2023/09/10 03:18:28;;;;;;;30.83;27.93;;;20.50;28.10;;;;;;4985381;28;21205;-67
2023/09/10 03:20:55;;;;;;;31.63;28.50;;;20.40;28.20;;;;;;4987144;28;20464;-66
2023/09/10 03:23:23;;;;;;;29.03;26.20;;;20.40;28.40;;;;;;4988563;28;20519;-66
2023/09/10 03:25:50;;;;;;;29.60;26.63;;;20.40;28.80;;;;;;4990248;28;20465;-66
2023/09/10 03:28:16;;;;;;;27.10;24.40;;;20.40;28.60;;;;;;4987169;28;20473;-66
2023/09/10 03:30:43;;;;;;;29.83;26.23;;;20.30;28.50;;;;;;4986948;28;20481;-66
2023/09/10 03:33:10;;;;;;;27.17;24.60;;;20.30;28.80;;;;;;4984652;28;21016;-66
2023/09/10 03:35:36;;;;;;;28.70;25.90;;;20.30;28.40;;;;;;4987141;28;20469;-67
2023/09/10 03:38:03;;;;;;;30.10;26.60;;;20.30;28.40;;;;;;4986644;28;20464;-67
2023/09/10 03:40:32;;;;;;;27.33;24.43;;;20.30;28.50;;;;;;4984371;28;20465;-66
2023/09/10 03:42:58;;;;;;;29.60;26.60;;;20.30;28.90;;;;;;4985836;28;20473;-66
2023/09/10 03:45:25;;;;;;;25.67;23.27;;;20.20;28.80;;;;;;4985881;28;20485;-67
2023/09/10 03:47:52;;;;;;;26.93;24.23;;;20.10;29.00;;;;;;4985586;28;20969;-67
2023/09/10 03:50:18;;;;;;;26.83;23.53;;;20.10;29.20;;;;;;4986722;28;20473;-67
2023/09/10 03:52:45;;;;;;;27.30;24.40;;;20.10;28.80;;;;;;4984935;28;20469;-67
2023/09/10 03:55:12;;;;;;;25.90;23.40;;;20.10;28.90;;;;;;4984687;28;20802;-67
2023/09/10 03:57:40;;;;;;;27.67;24.93;;;20.00;28.90;;;;;;4981555;28;20476;-67
2023/09/10 04:00:08;;;;;;;26.77;23.87;;;19.90;29.00;;;;;;4988071;28;21272;-66
2023/09/10 04:02:35;;;;;;;28.50;25.53;;;19.90;28.90;;;;;;4990846;28;21166;-67
2023/09/10 04:05:02;;;;;;;30.17;27.07;;;19.90;29.10;;;;;;4992498;28;20488;-67
2023/09/10 04:07:29;;;;;;;27.60;24.70;;;19.90;29.40;;;;;;4989076;28;20552;-67
2023/09/10 04:09:56;;;;;;;25.40;23.00;;;19.80;29.60;;;;;;4989443;28;20468;-67
2023/09/10 04:12:23;;;;;;;26.67;23.97;;;19.80;29.50;;;;;;4986024;28;20480;-67
2023/09/10 04:14:51;;;;;;;29.10;25.90;;;19.80;29.60;;;;;;4990279;28;20488;-67
2023/09/10 04:17:18;;;;;;;26.47;23.93;;;19.80;29.60;;;;;;4986037;28;20468;-66
2023/09/10 04:19:45;;;;;;;25.90;23.40;;;19.70;29.60;;;;;;4991636;28;20464;-67
2023/09/10 04:22:11;;;;;;;26.47;23.77;;;19.70;29.70;;;;;;4985768;28;20468;-67
2023/09/10 04:24:38;;;;;;;27.70;24.90;;;19.70;29.80;;;;;;4982980;28;20496;-67
2023/09/10 04:27:05;;;;;;;27.53;24.83;;;19.60;29.80;;;;;;4987617;28;20535;-67
2023/09/10 04:29:31;;;;;;;30.23;27.43;;;19.60;30.00;;;;;;4989021;28;20479;-67
2023/09/10 04:31:59;;;;;;;30.23;27.23;;;19.60;30.30;;;;;;4990087;28;20469;-67
2023/09/10 04:34:26;;;;;;;30.93;27.90;;;19.60;30.60;;;;;;4985061;28;20481;-67
2023/09/10 04:36:53;;;;;;;28.57;25.57;;;19.50;31.00;;;;;;4987575;28;20973;-67
2023/09/10 04:39:20;;;;;;;29.00;26.10;;;19.50;31.20;;;;;;4988210;28;20464;-67
2023/09/10 04:41:46;;;;;;;28.90;25.90;;;19.50;31.30;;;;;;4991772;28;20515;-67
2023/09/10 04:44:13;;;;;;;26.87;24.27;;;19.50;31.30;;;;;;4993509;28;20483;-66
2023/09/10 04:46:40;;;;;;;27.70;24.90;;;19.50;31.80;;;;;;4986128;28;21740;-67
2023/09/10 04:49:08;;;;;;;30.30;27.10;;;19.40;31.90;;;;;;4989939;28;20991;-67
2023/09/10 04:51:35;;;;;;;28.30;25.40;;;19.40;32.50;;;;;;4989640;28;20468;-66
2023/09/10 04:54:01;;;;;;;26.03;23.63;;;19.40;32.10;;;;;;4987753;28;20495;-67
2023/09/10 04:56:28;;;;;;;26.80;24.20;;;19.40;32.10;;;;;;4989796;28;20472;-66
2023/09/10 04:58:55;;;;;;;24.83;22.43;;;19.30;32.10;;;;;;4989240;28;20465;-66
2023/09/10 05:01:22;;;;;;;26.93;24.00;;;19.40;32.30;;;;;;4987107;28;20483;-66
2023/09/10 05:03:48;;;;;;;24.37;22.10;;;19.40;32.40;;;;;;4989624;28;20495;-66
2023/09/10 05:06:16;;;;;;;24.30;21.83;;;19.30;32.50;;;;;;4988517;28;21112;-66
2023/09/10 05:08:43;;;;;;;25.07;22.57;;;19.30;32.70;;;;;;4990485;28;20480;-67
2023/09/10 05:11:10;;;;;;;25.70;23.27;;;19.30;32.50;;;;;;4988800;28;21376;-66
2023/09/10 05:13:37;;;;;;;22.60;20.40;;;19.40;32.50;;;;;;4985516;28;20489;-67
2023/09/10 05:16:04;;;;;;;23.17;21.10;;;19.40;32.50;;;;;;4990168;28;20465;-67
2023/09/10 05:18:30;;;;;;;21.13;19.20;;;19.50;32.50;;;;;;4994732;28;20469;-67
2023/09/10 05:20:57;;;;;;;22.70;20.60;;;19.60;32.00;;;;;;4989965;28;20463;-66
2023/09/10 05:23:27;;;;;;;24.07;21.47;;;19.90;31.70;;;;;;4989452;28;20857;-67
2023/09/10 05:25:54;;;;;;;23.63;21.47;;;20.20;31.30;;;;;;4994749;28;20481;-66
2023/09/10 05:28:20;;;;;;;23.03;20.83;;;20.50;31.00;;;;;;4994851;28;20469;-67
2023/09/10 05:30:47;;;;;;;23.53;20.53;;;20.80;30.30;;;;;;4988793;28;20472;-67
2023/09/10 05:33:14;;;;;;;22.37;20.07;;;21.10;29.70;;;;;;4988854;28;20861;-67
2023/09/10 05:35:41;;;;;;;20.60;18.67;;;21.40;29.10;;;;;;4988423;28;21088;-67
2023/09/10 05:38:10;;;;;;;21.67;19.67;;;21.70;28.40;;;;;;4990429;28;20464;-67
2023/09/10 05:40:38;;;;;;;20.93;18.87;;;21.90;27.70;;;;;;4988794;28;20505;-67
2023/09/10 05:43:05;;;;;;;21.77;19.67;;;22.20;27.00;;;;;;4984955;28;20864;-67
2023/09/10 05:45:33;;;;;;;22.80;20.50;;;22.50;26.10;;;;;;4986244;28;20497;-67
2023/09/10 05:47:59;;;;;;;20.77;18.67;;;22.70;25.20;;;;;;4989772;28;20977;-67
2023/09/10 05:50:27;;;;;;;21.67;19.50;;;22.90;24.70;;;;;;4984036;28;20469;-67
2023/09/10 05:52:55;;;;;;;20.90;18.80;;;23.10;23.70;;;;;;4988388;28;20581;-67
2023/09/10 05:55:23;;;;;;;19.60;17.60;;;23.30;23.20;;;;;;4986370;28;20461;-67
2023/09/10 05:57:51;;;;;;;17.80;16.20;;;23.50;22.60;;;;;;4988666;28;20464;-67
2023/09/10 06:00:18;;;;;;;19.03;17.00;;;23.70;21.60;;;;;;4982750;28;20528;-67
2023/09/10 06:02:45;;;;;;;18.03;16.13;;;23.90;20.50;;;;;;4985727;28;20465;-67
2023/09/10 06:05:12;;;;;;;19.73;17.73;;;24.20;19.50;;;;;;4987935;28;20483;-67
2023/09/10 06:07:38;;;;;;;19.57;17.57;;;24.60;18.40;;;;;;4989677;28;20527;-67
2023/09/10 06:10:08;;;;;;;19.20;17.50;;;24.90;17.60;;;;;;4984455;28;20465;-67
2023/09/10 06:12:36;;;;;;;19.50;17.70;;;25.20;16.70;;;;;;4986758;28;20467;-67
2023/09/10 06:15:05;;;;;;;19.30;17.50;;;25.50;15.80;;;;;;4989557;28;20508;-67
2023/09/10 06:17:32;;;;;;;19.00;17.30;;;25.90;14.60;;;;;;4986719;28;20468;-67
2023/09/10 06:19:59;;;;;;;18.97;17.17;;;26.70;12.90;;;;;;4986920;28;20472;-67
2023/09/10 06:22:26;;;;;;;19.47;16.23;;;27.50;11.10;;;;;;4987034;28;20484;-66
2023/09/10 06:24:52;;;;;;;18.07;16.10;;;28.40;9.20;;;;;;4988589;28;20485;-67
2023/09/10 06:27:19;;;;;;;17.80;16.20;;;29.40;7.00;;;;;;4993065;28;20465;-67
2023/09/10 06:29:46;;;;;;;18.73;16.30;;;30.40;4.90;;;;;;4992414;28;20476;-67
2023/09/10 06:32:14;;;;;;;17.83;16.23;;;31.30;3.00;;;;;;4991135;28;20475;-67
2023/09/10 06:34:41;;;;;;;18.23;16.40;;;32.20;1.00;;;;;;4987381;28;20850;-67
2023/09/10 06:37:08;;;;;;;17.70;16.00;;;33.20;1.00;;;;;;4989162;28;20472;-67
2023/09/10 06:39:38;;;;;;;18.47;16.70;;;34.10;1.00;;;;;;4989901;28;20469;-67
2023/09/10 06:42:06;;;;;;;17.83;16.20;;;35.00;1.00;;;;;;4993399;28;20470;-67
2023/09/10 06:44:33;;;;;;;17.63;16.10;;;35.90;1.00;;;;;;4989401;28;20484;-68
2023/09/10 06:47:00;;;;;;;16.23;14.73;;;36.60;1.00;;;;;;4986243;28;20469;-67
2023/09/10 06:49:28;;;;;;;15.70;14.20;;;37.30;1.00;;;;;;4990590;28;20487;-68
2023/09/10 06:51:56;;;;;;;15.37;13.97;;;38.20;1.00;;;;;;4989435;28;20937;-67
2023/09/10 06:54:23;;;;;;;15.50;14.13;;;38.90;1.00;;;;;;4987655;28;20500;-71
2023/09/10 06:56:50;;;;;;;15.50;14.10;;;39.60;1.00;;;;;;4984467;28;20465;-70
2023/09/10 06:59:17;;;;;;;15.10;13.70;;;40.40;1.00;;;;;;4994453;28;20468;-70
2023/09/10 07:01:44;;;;;;;15.03;13.70;;;41.10;1.00;;;;;;4994615;28;20477;-70
2023/09/10 07:04:18;;;;;;;16.43;15.07;;;41.70;1.00;;;;;;4995027;28;20553;-70
2023/09/10 07:06:46;;;;;;;16.00;14.60;;;42.30;1.00;;;;;;4983183;28;20485;-69
2023/09/10 07:09:13;;;;;;;14.50;13.00;;;42.90;1.00;;;;;;4983076;28;20468;-69
2023/09/10 07:11:40;;;;;;;15.03;13.73;;;43.50;1.00;;;;;;4983419;28;20457;-69
2023/09/10 07:14:07;;;;;;;13.73;12.63;;;44.00;1.00;;;;;;4985578;28;20496;-71
2023/09/10 07:16:34;;;;;;;12.93;11.93;;;44.70;1.00;;;;;;4984058;28;20949;-70
2023/09/10 07:19:01;;;;;;;14.37;13.27;;;45.20;1.00;;;;;;4986586;28;20549;-69
2023/09/10 07:21:28;;;;;;;12.63;11.53;;;45.70;1.00;;;;;;4981016;28;20476;-70
2023/09/10 07:23:56;;;;;;;12.20;11.10;;;46.10;1.00;;;;;;4984751;28;20507;-70
2023/09/10 07:26:23;;;;;;;12.00;11.00;;;46.50;1.00;;;;;;4983746;28;20910;-70
2023/09/10 07:28:49;;;;;;;11.97;10.97;;;46.80;1.00;;;;;;4983507;28;20457;-71
2023/09/10 07:31:16;;;;;;;13.33;12.07;;;47.40;1.00;;;;;;4982459;28;20484;-71
2023/09/10 07:33:43;;;;;;;13.47;12.17;;;47.80;1.00;;;;;;4984406;28;20484;-70
2023/09/10 07:36:10;;;;;;;13.03;11.83;;;48.10;1.00;;;;;;4986351;28;20832;-70
2023/09/10 07:38:36;;;;;;;11.83;10.83;;;48.40;1.00;;;;;;4977937;28;20475;-70
2023/09/10 07:41:04;;;;;;;12.10;11.00;;;48.60;1.00;;;;;;4981023;28;20884;-70
2023/09/10 07:43:31;;;;;;;13.93;12.77;;;49.00;1.00;;;;;;4984445;28;20487;-69
2023/09/10 07:45:58;;;;;;;13.83;12.47;;;49.20;1.00;;;;;;4985155;28;20989;-70
2023/09/10 07:48:25;;;;;;;14.83;13.37;;;49.40;1.00;;;;;;4980626;28;20542;-70
2023/09/10 07:50:55;;;;;;;14.00;12.90;;;49.70;1.00;;;;;;4985482;28;20477;-70
2023/09/10 07:53:22;;;;;;;13.90;12.80;;;50.00;1.00;;;;;;4983668;28;20484;-70
2023/09/10 07:55:50;;;;;;;14.63;13.33;;;50.20;1.00;;;;;;4983639;28;20487;-68
2023/09/10 07:58:18;;;;;;;14.10;13.00;;;50.40;1.00;;;;;;4984917;28;20465;-70
2023/09/10 08:00:44;;;;;;;13.90;12.70;;;50.90;1.00;;;;;;4983776;28;20483;-70
2023/09/10 08:03:13;;;;;;;13.27;12.23;;;51.20;1.00;;;;;;4984785;28;20480;-70
2023/09/10 08:05:39;;;;;;;13.47;12.47;;;51.60;1.00;;;;;;4982269;28;20813;-70
2023/09/10 08:08:06;;;;;;;13.40;12.30;;;51.70;1.00;;;;;;4984833;28;20487;-70
2023/09/10 08:10:34;;;;;;;17.03;15.43;;;51.90;1.00;;;;;;4984199;28;20855;-70
2023/09/10 08:13:04;;;;;;;14.53;13.33;;;52.10;1.00;;;;;;4985502;28;20479;-70
2023/09/10 08:15:32;;;;;;;15.63;14.33;;;52.10;1.00;;;;;;4983246;28;20973;-70
2023/09/10 08:17:59;;;;;;;14.13;13.03;;;52.10;1.00;;;;;;4985244;28;20471;-69
2023/09/10 08:20:26;;;;;;;15.63;14.23;;;52.20;1.00;;;;;;4987031;28;20468;-70
2023/09/10 08:22:53;;;;;;;14.57;13.37;;;52.50;1.00;;;;;;4984718;28;20487;-69
2023/09/10 08:25:20;;;;;;;15.93;14.60;;;50.90;1.00;;;;;;4985293;28;20495;-70
2023/09/10 08:27:46;;;;;;;14.47;13.23;;;48.70;1.00;;;;;;4982198;28;20476;-70
2023/09/10 08:30:13;;;;;;;14.70;13.57;;;47.90;1.00;;;;;;4985274;28;20471;-70
2023/09/10 08:32:43;;;;;;;14.90;13.77;;;46.30;1.00;;;;;;4984638;28;20488;-70
2023/09/10 08:35:10;;;;;;;13.83;12.63;;;45.40;1.00;;;;;;4978389;28;20469;-70
2023/09/10 08:37:36;;;;;;;15.30;13.90;;;46.60;1.00;;;;;;4985350;28;20480;-70
2023/09/10 08:40:04;;;;;;;15.13;13.80;;;48.10;1.00;;;;;;4979994;28;20469;-70
2023/09/10 08:42:37;;;;;;;15.70;14.40;;;49.40;1.00;;;;;;4983263;28;20492;-70
2023/09/10 08:45:07;;;;;;;15.40;14.00;;;49.70;1.00;;;;;;4984081;28;20499;-71
2023/09/10 08:47:40;;;;;;;15.37;14.00;;;48.40;1.00;;;;;;4983634;28;21138;-70
2023/09/10 08:50:09;;;;;;;13.73;12.60;;;49.40;1.00;;;;;;4980513;28;20484;-70
2023/09/10 08:52:39;;;;;;;13.40;12.20;;;50.30;1.00;;;;;;4983737;28;20544;-70
2023/09/10 08:55:07;;;;;;;14.43;13.23;;;51.20;1.00;;;;;;4984912;28;20979;-70
2023/09/10 08:57:37;;;;;;;15.20;13.67;;;51.90;1.00;;;;;;4982378;28;20476;-71
2023/09/10 09:00:12;;;;;;;12.70;11.60;;;52.50;1.00;;;;;;4982342;28;20469;-71
2023/09/10 09:02:39;;;;;;;13.10;11.90;;;52.80;1.00;;;;;;4979942;28;20535;-71
2023/09/10 09:05:08;;;;;;;12.33;11.33;;;53.10;1.00;;;;;;4973648;28;20485;-70
2023/09/10 09:07:39;;;;;;;13.10;12.10;;;53.30;1.00;;;;;;4976887;28;20472;-69
2023/09/10 09:10:09;;;;;;;12.90;11.67;;;52.60;1.00;;;;;;4983139;28;20468;-69
2023/09/10 09:12:38;;;;;;;12.30;11.20;;;52.70;1.00;;;;;;4987933;28;20460;-70
2023/09/10 09:15:06;;;;;;;12.00;11.03;;;53.40;1.00;;;;;;4976805;28;20518;-67
2023/09/10 09:17:33;;;;;;;11.47;10.47;;;53.40;1.00;;;;;;4980925;28;21955;-68
2023/09/10 09:20:04;;;;;;;11.80;10.60;;;53.40;1.00;;;;;;4982942;28;20853;-67
2023/09/10 09:22:34;;;;;;;12.37;11.10;;;53.60;1.00;;;;;;4986013;28;20467;-68
2023/09/10 09:25:02;;;;;;;12.03;10.93;;;53.90;1.00;;;;;;4986957;28;20511;-68
2023/09/10 09:27:30;;;;;;;11.27;10.37;;;54.20;1.00;;;;;;4987602;28;20491;-68
2023/09/10 09:29:57;;;;;;;12.00;10.90;;;54.50;1.00;;;;;;4984931;28;20456;-68
2023/09/10 09:32:24;;;;;;;11.43;10.43;;;55.00;1.00;;;;;;4980692;28;20825;-69
2023/09/10 09:34:51;;;;;;;12.37;11.37;;;55.20;1.00;;;;;;4979858;28;20488;-69
2023/09/10 09:37:19;;;;;;;11.00;9.90;;;55.30;1.00;;;;;;4986888;28;20205;-70
2023/09/10 09:39:50;;;;;;;11.87;10.83;;;55.30;1.00;;;;;;4983880;28;20471;-70
2023/09/10 09:42:17;;;;;;;12.50;11.50;;;55.50;1.00;;;;;;4987713;28;20209;-69
2023/09/10 09:44:44;;;;;;;9.73;8.83;;;55.50;1.00;;;;;;4983898;28;20495;-69
2023/09/10 09:47:13;;;;;;;11.10;10.20;;;55.60;1.00;;;;;;4989702;28;20217;-69
2023/09/10 09:49:45;;;;;;;10.93;10.03;;;55.50;1.00;;;;;;4988789;28;20205;-69
2023/09/10 09:52:13;;;;;;;10.67;9.67;;;55.50;1.00;;;;;;4987788;28;20237;-69
2023/09/10 09:54:39;;;;;;;9.83;9.13;;;55.80;1.00;;;;;;4987199;28;20221;-71
2023/09/10 09:57:08;;;;;;;9.80;8.90;;;55.90;1.00;;;;;;4988849;28;20233;-70
2023/09/10 09:59:35;;;;;;;9.33;8.37;;;56.10;1.00;;;;;;4987195;28;20216;-71
2023/09/10 10:02:02;;;;;;;9.93;9.13;;;56.20;1.00;;;;;;4987871;28;20729;-71
2023/09/10 10:04:29;;;;;;;10.90;9.50;;;56.30;1.00;;;;;;4988531;28;20701;-71
2023/09/10 10:06:56;;;;;;;9.13;8.30;;;56.30;1.00;;;;;;4982698;28;20680;-72
2023/09/10 10:09:23;;;;;;;9.97;8.00;;;56.30;1.00;;;;;;4984280;28;20670;-70
2023/09/10 10:11:50;;;;;;;10.07;9.17;;;56.50;1.00;;;;;;4986424;28;20218;-70
2023/09/10 10:14:20;;;;;;;9.13;8.32;;;56.90;1.00;;;;;;4988325;28;20229;-71
2023/09/10 10:16:48;;;;;;;9.20;8.40;;;56.90;1.00;;;;;;4990239;28;20650;-71
2023/09/10 10:19:16;;;;;;;10.30;9.40;;;56.50;1.00;;;;;;4986480;28;20201;-70
2023/09/10 10:21:43;;;;;;;10.77;9.67;;;55.60;1.00;;;;;;4983358;28;20212;-71
2023/09/10 10:24:12;;;;;;;9.97;9.03;;;54.80;1.00;;;;;;5021478;23;20497;-67
2023/09/10 10:26:40;;;;;;;9.80;8.90;;;54.70;1.00;;;;;;5034595;28;20496;-67
2023/09/10 10:29:08;;;;;;;9.73;8.83;;;54.90;1.00;;;;;;5045852;28;20462;-66
2023/09/10 10:31:39;;;;;;;9.53;8.27;;;55.10;1.00;;;;;;5044784;28;21106;-67
2023/09/10 10:34:10;;;;;;;8.53;7.83;;;55.10;1.00;;;;;;5033895;28;20485;-68
2023/09/10 10:36:47;;;;;;;10.30;9.27;;;54.10;1.00;;;;;;5035966;28;20462;-66
2023/09/10 10:39:17;;;;;;;9.00;8.20;;;52.10;1.00;;;;;;5045120;28;20465;-66
2023/09/10 10:41:46;;;;;;;10.30;9.30;;;51.00;1.00;;;;;;5045816;28;20461;-66
2023/09/10 10:44:20;;;;;;;9.57;8.77;;;50.90;1.00;;;;;;5044429;28;20492;-66
2023/09/10 10:46:50;;;;;;;10.00;9.13;;;50.10;1.00;;;;;;5043649;28;20482;-66
2023/09/10 10:49:17;;;;;;;9.87;8.97;;;48.60;1.00;;;;;;5045109;28;20458;-66
2023/09/10 10:51:48;;;;;;;10.60;9.60;;;48.30;1.00;;;;;;5046059;28;20462;-66
2023/09/10 10:54:16;;;;;;;11.80;10.70;;;48.70;1.00;;;;;;5041507;28;20482;-67
2023/09/10 10:56:43;;;;;;;10.23;9.33;;;48.60;1.00;;;;;;5045752;28;20466;-66
2023/09/10 10:59:10;;;;;;;10.97;9.97;;;48.60;1.00;;;;;;5045809;28;20470;-67
2023/09/10 11:01:37;;;;;;;8.90;8.10;;;48.50;1.00;;;;;;5041886;28;20478;-65
2023/09/10 11:04:20;;;;;;;10.73;8.37;;;48.30;1.00;;;;;;5047211;28;20910;-66
2023/09/10 11:07:19;;;;;;;8.60;7.90;;;48.00;1.00;;;;;;5043876;28;20481;-65
2023/09/10 11:09:47;;;;;;;9.30;8.50;;;47.80;1.00;;;;;;5043903;28;20474;-69
2023/09/10 11:12:14;;;;;;;9.70;8.80;;;47.40;1.00;;;;;;5041885;28;20482;-68
2023/09/10 11:15:04;;;;;;;9.43;8.67;;;47.10;1.00;;;;;;5041534;28;20501;-68
2023/09/10 11:17:33;;;;;;;10.60;9.03;;;46.50;1.00;;;;;;5043871;28;21019;-68
2023/09/10 11:20:01;;;;;;;10.53;9.53;;;45.40;1.00;;;;;;5039606;28;20497;-68
2023/09/10 11:22:28;;;;;;;9.27;8.47;;;43.90;1.00;;;;;;5045584;28;20458;-69
2023/09/10 11:25:01;;;;;;;9.97;8.97;;;42.50;1.00;;;;;;5044651;28;20772;-68
2023/09/10 11:27:30;;;;;;;10.27;9.27;;;41.40;1.00;;;;;;5043349;28;20597;-68
2023/09/10 11:30:11;;;;;;;10.40;9.40;;;40.60;1.00;;;;;;5040211;28;20462;-68
2023/09/10 11:32:38;;;;;;;11.07;9.97;;;39.70;1.00;;;;;;5043673;28;20539;-67
2023/09/10 11:35:28;;;;;;;10.37;9.47;;;39.00;1.00;;;;;;5044469;28;20858;-68
2023/09/10 11:37:56;;;;;;;9.50;8.60;;;38.30;1.00;;;;;;5040405;28;20576;-68
2023/09/10 11:40:24;;;;;;;11.10;10.00;;;37.60;1.00;;;;;;5046544;28;20543;-68
2023/09/10 11:42:51;;;;;;;9.67;8.77;;;37.10;1.00;;;;;;5041432;28;20495;-68
2023/09/10 11:45:18;;;;;;;10.33;9.33;;;36.50;1.00;;;;;;5038396;28;20637;-69
2023/09/10 11:47:47;;;;;;;10.87;9.30;;;36.10;1.00;;;;;;5041637;28;20478;-68
2023/09/10 11:50:15;;;;;;;8.43;7.63;;;35.90;1.00;;;;;;5039195;28;20574;-68
2023/09/10 11:52:43;;;;;;;9.33;8.20;;;35.80;1.00;;;;;;5031804;28;20611;-68
2023/09/10 11:55:10;;;;;;;11.57;9.80;;;35.60;1.00;;;;;;5036449;28;20467;-67
2023/09/10 11:57:38;;;;;;;10.17;9.13;;;35.40;1.00;;;;;;5041921;28;20847;-67
2023/09/10 12:00:07;;;;;;;9.00;8.10;;;35.00;1.00;;;;;;5036200;28;20551;-67
2023/09/10 12:02:34;;;;;;;9.80;8.87;;;34.70;1.00;;;;;;5036802;28;20478;-67
2023/09/10 12:05:02;;;;;;;8.83;8.03;;;34.40;1.00;;;;;;5038034;28;20488;-68
2023/09/10 12:07:28;;;;;;;9.97;8.97;;;34.10;1.00;;;;;;5041478;28;20492;-67
2023/09/10 12:09:56;;;;;;;8.33;7.53;;;34.10;1.00;;;;;;5028362;28;20470;-67
2023/09/10 12:12:30;;;;;;;9.17;8.27;;;33.90;1.00;;;;;;5037002;28;20470;-68
2023/09/10 12:14:57;;;;;;;8.60;7.70;;;33.70;1.00;;;;;;5035273;28;20492;-67
2023/09/10 12:17:25;;;;;;;9.90;8.93;;;33.50;1.00;;;;;;5042292;28;21101;-67
2023/09/10 12:19:52;;;;;;;9.47;8.57;;;33.40;1.00;;;;;;5042016;28;20470;-67
2023/09/10 12:22:19;;;;;;;10.47;8.77;;;33.30;1.00;;;;;;5044484;28;20472;-67
2023/09/10 12:24:46;;;;;;;10.13;9.07;;;33.10;1.00;;;;;;5043398;28;20505;-67
2023/09/10 12:27:14;;;;;;;10.20;9.10;;;33.00;1.00;;;;;;5043645;28;20486;-68
2023/09/10 12:29:41;;;;;;;8.53;7.63;;;32.80;1.00;;;;;;5043756;28;20829;-67
2023/09/10 12:32:09;;;;;;;9.73;8.27;;;32.70;1.00;;;;;;5044832;28;20553;-67
2023/09/10 12:34:36;;;;;;;9.17;8.27;;;32.60;1.00;;;;;;5038854;28;20481;-68
2023/09/10 12:37:03;;;;;;;8.33;7.17;;;32.50;1.00;;;;;;5041780;28;20468;-68
2023/09/10 12:39:33;;;;;;;8.50;7.60;;;32.40;1.00;;;;;;5044997;28;20470;-68